Bw Mindoro — MAKR9 — position and weather

sailwx.info

Track history (hours):
 
Tides and Currents Weather Stations Pressure Air Temp Water Temp Dewpoint Dewpoint Depression Visibility Wind Speed Wind Dir Waves Ship Positions

Bw Mindoro

Last reported at 2018-Jun-05 09:07 UTC. Time now 2018-Jun-18 02:11 UTC.
Position S 07°35' E 113°59'.
Warning: this ship's position is 12 days out of date.

Length 226 m; draft 11.4 m.

Type: Tanker. MMSI: 232005596.

Date/timePositionNaut miles runAvg speedWind from/ knotsBaromVisibWave heightAir tempDewpointWater temp
2018-Jun-05 09:07S 07°35' E 113°59'11 0.2
2018-Jun-03 08:18S 07°28' E 114°07'514.8
2018-Jun-03 07:58S 07°27' E 114°12'  
2018-May-31 21:20N 01°24' E 104°27'516.2
2018-May-31 21:00N 01°20' E 104°23'815.4
2018-May-31 20:30N 01°17' E 104°17'815.5
2018-May-31 20:00N 01°16' E 104°09'713.8
2018-May-31 19:30N 01°15' E 104°02'612.4
2018-May-31 19:00N 01°13' E 103°56'511.0
2018-May-31 18:30N 01°11' E 103°51'612.0
2018-May-31 18:00N 01°08' E 103°46'611.3
2018-May-31 17:30N 01°04' E 103°42'510.1
2018-May-31 17:00N 01°04' E 103°37'5 9.9
2018-May-31 16:30N 01°07' E 103°33'4 7.1
2018-May-31 16:00N 01°10' E 103°34'2 4.9
2018-May-31 15:30N 01°10' E 103°37'0 0.9
2018-May-31 15:00N 01°10' E 103°37'0 0.0
2018-May-31 14:30N 01°10' E 103°37'0 0.1
2018-May-31 14:00N 01°10' E 103°37'0 0.2
2018-May-31 13:30N 01°10' E 103°37'0 0.3
2018-May-31 13:00N 01°10' E 103°37'0 0.1
2018-May-31 12:30N 01°10' E 103°37'0 0.2
2018-May-31 12:00N 01°10' E 103°37'0 0.0
2018-May-31 11:29N 01°10' E 103°37'0 0.1
2018-May-31 11:00N 01°10' E 103°37'0 0.1
2018-May-31 10:31N 01°10' E 103°37'0 0.0
2018-May-31 10:00N 01°10' E 103°37'0 0.0
2018-May-31 09:31N 01°10' E 103°37'0 0.0
2018-May-31 08:59N 01°10' E 103°37'0 0.1
2018-May-31 08:30N 01°10' E 103°37'0 0.1
2018-May-31 08:00N 01°10' E 103°37'0 0.1
2018-May-31 07:30N 01°10' E 103°37'0 0.1
2018-May-31 07:00N 01°10' E 103°37'0 0.0
2018-May-31 06:30N 01°10' E 103°37'0 0.3
2018-May-31 06:00N 01°10' E 103°37'0 0.1
2018-May-31 05:28N 01°10' E 103°37'0 0.1
2018-May-31 05:00N 01°10' E 103°37'0 0.1
2018-May-31 04:30N 01°10' E 103°37'0 0.1
2018-May-31 04:01N 01°10' E 103°37'0 0.1
2018-May-31 03:30N 01°10' E 103°37'0 0.1
2018-May-31 03:00N 01°10' E 103°37'0 0.0
2018-May-31 02:30N 01°10' E 103°37'0 0.0
2018-May-31 02:00N 01°10' E 103°37'0 0.1
2018-May-31 01:30N 01°10' E 103°37'0 0.2
2018-May-31 01:00N 01°10' E 103°37'1 1.6
2018-May-31 00:30N 01°10' E 103°36'1 1.2
2018-May-31 00:00N 01°10' E 103°36'0 0.1
2018-May-30 23:22N 01°10' E 103°36'0 0.0
2018-May-30 22:43N 01°10' E 103°36'0 0.0
2018-May-30 22:31N 01°10' E 103°36'0 0.1
2018-May-30 21:57N 01°10' E 103°36'0 0.0
2018-May-30 21:22N 01°10' E 103°36'0 0.0
2018-May-30 20:58N 01°10' E 103°36'0 0.0
2018-May-30 20:28N 01°10' E 103°36'0 0.1
2018-May-30 19:43N 01°10' E 103°36'0 0.0
2018-May-30 19:28N 01°10' E 103°36'0 0.0
2018-May-30 19:00N 01°10' E 103°36'0 0.0
2018-May-30 18:22N 01°10' E 103°36'0 0.1
2018-May-30 17:55N 01°10' E 103°36'0 0.0
2018-May-30 17:31N 01°10' E 103°36'0 0.0
2018-May-30 16:57N 01°10' E 103°36'0 0.1
2018-May-30 16:28N 01°10' E 103°36'0 0.1
2018-May-30 15:57N 01°10' E 103°36'0 0.0
2018-May-30 15:30N 01°10' E 103°36'0 0.0
2018-May-30 14:58N 01°10' E 103°36'0 0.8
2018-May-30 14:30N 01°10' E 103°36'2 4.1
2018-May-30 14:00N 01°10' E 103°34'2 4.0
2018-May-30 13:30N 01°10' E 103°32'3 5.0
2018-May-30 13:00N 01°10' E 103°29'3 6.0
2018-May-30 12:28N 01°11' E 103°26'511.4
2018-May-30 11:59N 01°14' E 103°22'712.8
2018-May-30 11:27N 01°18' E 103°16'  
Track history (hours):
 
Tides and Currents Weather Stations Pressure Air Temp Water Temp Dewpoint Dewpoint Depression Visibility Wind Speed Wind Dir Waves Ship Positions

Bw Mindoro

Last reported at 2018-Jun-05 09:07 UTC. Time now 2018-Jun-18 02:11 UTC.
Position S 07°35' E 113°59'.
Warning: this ship's position is 12 days out of date.

Length 226 m; draft 11.4 m.

Type: Tanker. MMSI: 232005596.

Date/timePositionNaut miles runAvg speedWind from/ knotsBaromVisibWave heightAir tempDewpointWater temp
2018-Jun-05 09:07S 07°35' E 113°59'11 0.2
2018-Jun-03 08:18S 07°28' E 114°07'514.8
2018-Jun-03 07:58S 07°27' E 114°12'  
2018-May-31 21:20N 01°24' E 104°27'516.2
2018-May-31 21:00N 01°20' E 104°23'815.4
2018-May-31 20:30N 01°17' E 104°17'815.5
2018-May-31 20:00N 01°16' E 104°09'713.8
2018-May-31 19:30N 01°15' E 104°02'612.4
2018-May-31 19:00N 01°13' E 103°56'511.0
2018-May-31 18:30N 01°11' E 103°51'612.0
2018-May-31 18:00N 01°08' E 103°46'611.3
2018-May-31 17:30N 01°04' E 103°42'510.1
2018-May-31 17:00N 01°04' E 103°37'5 9.9
2018-May-31 16:30N 01°07' E 103°33'4 7.1
2018-May-31 16:00N 01°10' E 103°34'2 4.9
2018-May-31 15:30N 01°10' E 103°37'0 0.9
2018-May-31 15:00N 01°10' E 103°37'0 0.0
2018-May-31 14:30N 01°10' E 103°37'0 0.1
2018-May-31 14:00N 01°10' E 103°37'0 0.2
2018-May-31 13:30N 01°10' E 103°37'0 0.3
2018-May-31 13:00N 01°10' E 103°37'0 0.1
2018-May-31 12:30N 01°10' E 103°37'0 0.2
2018-May-31 12:00N 01°10' E 103°37'0 0.0
2018-May-31 11:29N 01°10' E 103°37'0 0.1
2018-May-31 11:00N 01°10' E 103°37'0 0.1
2018-May-31 10:31N 01°10' E 103°37'0 0.0
2018-May-31 10:00N 01°10' E 103°37'0 0.0
2018-May-31 09:31N 01°10' E 103°37'0 0.0
2018-May-31 08:59N 01°10' E 103°37'0 0.1
2018-May-31 08:30N 01°10' E 103°37'0 0.1
2018-May-31 08:00N 01°10' E 103°37'0 0.1
2018-May-31 07:30N 01°10' E 103°37'0 0.1
2018-May-31 07:00N 01°10' E 103°37'0 0.0
2018-May-31 06:30N 01°10' E 103°37'0 0.3
2018-May-31 06:00N 01°10' E 103°37'0 0.1
2018-May-31 05:28N 01°10' E 103°37'0 0.1
2018-May-31 05:00N 01°10' E 103°37'0 0.1
2018-May-31 04:30N 01°10' E 103°37'0 0.1
2018-May-31 04:01N 01°10' E 103°37'0 0.1
2018-May-31 03:30N 01°10' E 103°37'0 0.1
2018-May-31 03:00N 01°10' E 103°37'0 0.0
2018-May-31 02:30N 01°10' E 103°37'0 0.0
2018-May-31 02:00N 01°10' E 103°37'0 0.1
2018-May-31 01:30N 01°10' E 103°37'0 0.2
2018-May-31 01:00N 01°10' E 103°37'1 1.6
2018-May-31 00:30N 01°10' E 103°36'1 1.2
2018-May-31 00:00N 01°10' E 103°36'0 0.1
2018-May-30 23:22N 01°10' E 103°36'0 0.0
2018-May-30 22:43N 01°10' E 103°36'0 0.0
2018-May-30 22:31N 01°10' E 103°36'0 0.1
2018-May-30 21:57N 01°10' E 103°36'0 0.0
2018-May-30 21:22N 01°10' E 103°36'0 0.0
2018-May-30 20:58N 01°10' E 103°36'0 0.0
2018-May-30 20:28N 01°10' E 103°36'0 0.1
2018-May-30 19:43N 01°10' E 103°36'0 0.0
2018-May-30 19:28N 01°10' E 103°36'0 0.0
2018-May-30 19:00N 01°10' E 103°36'0 0.0
2018-May-30 18:22N 01°10' E 103°36'0 0.1
2018-May-30 17:55N 01°10' E 103°36'0 0.0
2018-May-30 17:31N 01°10' E 103°36'0 0.0
2018-May-30 16:57N 01°10' E 103°36'0 0.1
2018-May-30 16:28N 01°10' E 103°36'0 0.1
2018-May-30 15:57N 01°10' E 103°36'0 0.0
2018-May-30 15:30N 01°10' E 103°36'0 0.0
2018-May-30 14:58N 01°10' E 103°36'0 0.8
2018-May-30 14:30N 01°10' E 103°36'2 4.1
2018-May-30 14:00N 01°10' E 103°34'2 4.0
2018-May-30 13:30N 01°10' E 103°32'3 5.0
2018-May-30 13:00N 01°10' E 103°29'3 6.0
2018-May-30 12:28N 01°11' E 103°26'511.4
2018-May-30 11:59N 01°14' E 103°22'712.8
2018-May-30 11:27N 01°18' E 103°16'  

Dump ship's entire track history